createdAt,value
2019-03-29T00:01:09.321Z,0.80
2019-03-29T00:05:12.742Z,0.67
2019-03-29T00:09:16.105Z,0.70
2019-03-29T00:13:19.418Z,0.80
2019-03-29T00:17:22.929Z,0.73
2019-03-29T00:21:26.261Z,0.70
2019-03-29T00:25:30.838Z,0.63
2019-03-29T00:29:34.134Z,0.70
2019-03-29T00:33:37.701Z,0.73
2019-03-29T00:37:53.004Z,0.60
2019-03-29T00:41:46.636Z,0.50
2019-03-29T00:45:49.955Z,0.60
2019-03-29T00:49:53.660Z,0.70
2019-03-29T00:53:56.955Z,0.50
2019-03-29T00:58:00.383Z,0.50
2019-03-29T01:02:03.692Z,0.80
2019-03-29T01:06:07.089Z,0.57
2019-03-29T01:10:12.580Z,0.63
2019-03-29T01:14:16.826Z,0.60
2019-03-29T01:18:20.254Z,0.47
2019-03-29T01:22:23.660Z,0.60
2019-03-29T01:26:27.181Z,0.47
2019-03-29T01:30:30.855Z,0.70
2019-03-29T01:34:34.158Z,0.70
2019-03-29T01:38:37.557Z,0.80
2019-03-29T01:42:42.849Z,0.47
2019-03-29T01:46:46.282Z,0.90
2019-03-29T01:50:51.660Z,0.87
2019-03-29T01:54:55.213Z,0.80
2019-03-29T01:58:58.518Z,0.70
2019-03-29T02:03:01.921Z,0.73
2019-03-29T02:07:05.217Z,0.53
2019-03-29T02:11:08.687Z,0.70
2019-03-29T02:15:12.262Z,0.60
2019-03-29T02:19:15.740Z,0.87
2019-03-29T02:23:19.556Z,0.77
2019-03-29T02:27:23.172Z,1.10
2019-03-29T02:31:28.761Z,0.90
2019-03-29T02:35:31.590Z,1.07
2019-03-29T02:39:34.900Z,0.60
2019-03-29T02:43:38.707Z,1.00
2019-03-29T02:47:42.316Z,0.93
2019-03-29T02:51:46.107Z,0.93
2019-03-29T02:55:49.425Z,0.83
2019-03-29T02:59:52.814Z,0.90
2019-03-29T03:03:56.390Z,1.17
2019-03-29T03:07:59.708Z,0.83
2019-03-29T03:12:03.020Z,0.87
2019-03-29T03:16:06.719Z,1.00
2019-03-29T03:20:14.955Z,0.90
2019-03-29T03:24:17.424Z,0.90
2019-03-29T03:28:20.719Z,1.10
2019-03-29T03:32:24.173Z,1.50
2019-03-29T03:36:28.818Z,0.80
2019-03-29T03:40:32.492Z,0.97
2019-03-29T03:44:36.824Z,1.07
2019-03-29T03:48:40.443Z,1.10
2019-03-29T03:52:43.789Z,0.83
2019-03-29T03:56:48.879Z,0.80
2019-03-29T04:00:59.460Z,0.63
2019-03-29T04:05:02.838Z,0.83
2019-03-29T04:09:07.903Z,1.53
2019-03-29T04:13:11.332Z,1.20
2019-03-29T04:17:14.667Z,1.57
2019-03-29T04:21:18.042Z,1.00
2019-03-29T04:25:21.413Z,0.90
2019-03-29T04:29:24.827Z,1.10
2019-03-29T04:33:28.141Z,0.70
2019-03-29T04:37:31.582Z,1.00
2019-03-29T04:41:34.972Z,0.97
2019-03-29T04:45:38.520Z,0.70
2019-03-29T04:49:41.845Z,0.80
2019-03-29T04:53:45.233Z,0.70
2019-03-29T04:57:48.732Z,0.77
2019-03-29T05:01:52.148Z,0.67
2019-03-29T05:05:56.042Z,0.50
2019-03-29T05:09:59.448Z,0.60
2019-03-29T05:14:02.748Z,0.50
2019-03-29T05:18:06.234Z,0.60
2019-03-29T05:22:09.648Z,0.57
2019-03-29T05:26:13.067Z,0.63
2019-03-29T05:30:16.563Z,0.60
2019-03-29T05:34:20.013Z,0.47
2019-03-29T05:38:23.488Z,0.67
2019-03-29T05:42:27.493Z,0.60
2019-03-29T05:46:31.366Z,0.33
2019-03-29T05:50:36.801Z,0.40
2019-03-29T05:54:40.509Z,0.43
2019-03-29T05:58:44.345Z,0.90
2019-03-29T06:02:47.613Z,0.70
2019-03-29T06:06:50.933Z,1.13
2019-03-29T06:10:54.229Z,0.70
2019-03-29T06:14:57.561Z,0.50
2019-03-29T06:19:00.827Z,0.50
2019-03-29T06:23:04.722Z,0.43
2019-03-29T06:27:08.519Z,0.20
2019-03-29T06:31:12.084Z,0.67
2019-03-29T06:35:15.446Z,0.50
2019-03-29T06:39:21.404Z,1.57
2019-03-29T06:43:24.782Z,0.47
2019-03-29T06:47:29.848Z,0.37
2019-03-29T06:51:33.142Z,0.30
2019-03-29T06:55:36.660Z,0.30
2019-03-29T06:59:40.030Z,0.30
2019-03-29T07:03:43.550Z,0.90
2019-03-29T07:07:47.053Z,0.40
2019-03-29T07:11:50.355Z,0.30
2019-03-29T07:15:53.920Z,0.40
2019-03-29T07:19:57.238Z,0.50
2019-03-29T07:24:00.587Z,0.30
2019-03-29T07:28:04.084Z,0.50
2019-03-29T07:32:07.360Z,0.40
2019-03-29T07:36:10.746Z,0.40
2019-03-29T07:40:14.283Z,0.50
2019-03-29T07:44:17.660Z,0.40
2019-03-29T07:48:21.205Z,0.50
2019-03-29T07:52:25.768Z,0.70
2019-03-29T07:56:29.426Z,0.50
2019-03-29T08:00:32.775Z,0.50
2019-03-29T08:04:36.027Z,0.30
2019-03-29T08:08:39.419Z,0.57
2019-03-29T08:12:43.041Z,0.50
2019-03-29T08:16:46.387Z,0.40
2019-03-29T08:20:49.645Z,0.40
2019-03-29T08:24:52.989Z,0.50
2019-03-29T08:28:56.300Z,0.83
2019-03-29T08:32:59.633Z,0.50
2019-03-29T08:37:02.865Z,0.57
2019-03-29T08:41:06.282Z,0.33
2019-03-29T08:45:09.624Z,0.47
2019-03-29T08:49:16.544Z,0.30
2019-03-29T08:53:18.070Z,0.40
2019-03-29T08:57:21.603Z,0.43
2019-03-29T09:01:24.896Z,0.93
2019-03-29T09:05:29.324Z,0.50
2019-03-29T09:09:32.587Z,0.20
2019-03-29T09:13:35.927Z,0.47
2019-03-29T09:17:39.473Z,0.37
2019-03-29T09:21:42.845Z,0.50
2019-03-29T09:25:46.239Z,0.63
2019-03-29T09:29:49.927Z,0.87
2019-03-29T09:33:53.215Z,0.57
2019-03-29T09:37:57.649Z,0.50
2019-03-29T09:42:01.107Z,0.80
2019-03-29T09:46:04.462Z,0.70
2019-03-29T09:50:10.600Z,0.50
2019-03-29T09:54:15.117Z,0.57
2019-03-29T09:58:18.426Z,0.50
2019-03-29T10:02:21.806Z,0.50
2019-03-29T10:06:25.096Z,0.50
2019-03-29T10:10:28.419Z,0.43
2019-03-29T10:14:33.465Z,0.50
2019-03-29T10:18:36.991Z,0.60
2019-03-29T10:22:40.488Z,0.60
2019-03-29T10:26:43.979Z,0.60
2019-03-29T10:30:47.337Z,0.70
2019-03-29T10:34:50.879Z,0.60
2019-03-29T10:38:55.540Z,0.60
2019-03-29T10:42:59.251Z,0.50
2019-03-29T10:47:04.041Z,0.73
2019-03-29T10:51:08.561Z,0.50
2019-03-29T10:55:14.844Z,0.60
2019-03-29T10:59:27.328Z,0.90
2019-03-29T11:03:23.496Z,0.83
2019-03-29T11:07:26.876Z,0.77
2019-03-29T11:11:30.156Z,0.80
2019-03-29T11:15:33.731Z,0.80
2019-03-29T11:19:38.011Z,0.80
2019-03-29T11:23:41.341Z,0.97
2019-03-29T11:27:44.616Z,0.80
2019-03-29T11:31:47.971Z,1.03
2019-03-29T11:35:51.231Z,0.93
2019-03-29T11:39:54.757Z,1.20
2019-03-29T11:43:58.090Z,2.63
2019-03-29T11:48:08.937Z,1.00
2019-03-29T11:52:08.022Z,0.93
2019-03-29T11:56:11.406Z,0.80
2019-03-29T12:00:15.378Z,0.93
2019-03-29T12:04:19.341Z,0.80
2019-03-29T12:08:22.661Z,0.60
2019-03-29T12:12:27.584Z,0.70
2019-03-29T12:16:31.313Z,1.23
2019-03-29T12:20:34.812Z,1.20
2019-03-29T12:24:38.106Z,0.60
2019-03-29T12:28:41.795Z,0.60
2019-03-29T12:32:45.077Z,1.00
2019-03-29T12:36:51.230Z,0.90
2019-03-29T12:40:54.547Z,0.90
2019-03-29T12:44:58.042Z,0.93
2019-03-29T12:49:01.489Z,1.00
2019-03-29T12:53:05.177Z,1.00
2019-03-29T12:57:08.476Z,1.07
2019-03-29T13:01:12.082Z,1.00
2019-03-29T13:05:15.549Z,1.37
2019-03-29T13:09:19.083Z,1.07
2019-03-29T13:13:22.513Z,1.20
2019-03-29T13:17:28.451Z,1.07
2019-03-29T13:21:30.965Z,0.80
2019-03-29T13:25:34.643Z,1.00
2019-03-29T13:29:37.999Z,1.10
2019-03-29T13:33:41.391Z,1.13
2019-03-29T13:37:44.717Z,1.10
2019-03-29T13:41:48.116Z,0.60
2019-03-29T13:45:51.559Z,1.10
2019-03-29T13:49:54.911Z,1.00
2019-03-29T13:53:58.192Z,1.17
2019-03-29T13:58:01.821Z,0.70
2019-03-29T14:02:05.227Z,1.47
2019-03-29T14:06:08.550Z,1.40
2019-03-29T14:10:12.427Z,1.20
2019-03-29T14:14:15.766Z,1.20
2019-03-29T14:18:19.044Z,1.13
2019-03-29T14:22:22.420Z,0.90
2019-03-29T14:26:25.680Z,1.30
2019-03-29T14:30:29.043Z,1.03
2019-03-29T14:34:32.321Z,0.80
2019-03-29T14:38:35.696Z,0.83
2019-03-29T14:42:39.242Z,1.17
2019-03-29T14:46:42.611Z,1.57
2019-03-29T14:50:45.955Z,1.17
2019-03-29T14:54:49.330Z,1.03
2019-03-29T14:58:53.076Z,1.20
2019-03-29T15:02:56.412Z,1.10
2019-03-29T15:06:59.781Z,1.93
2019-03-29T15:11:03.147Z,1.20
2019-03-29T15:15:07.309Z,1.20
2019-03-29T15:19:10.827Z,1.07
2019-03-29T15:23:14.091Z,1.90
2019-03-29T15:27:17.462Z,1.30
2019-03-29T15:31:20.738Z,1.10
2019-03-29T15:35:24.089Z,1.20
2019-03-29T15:39:31.994Z,1.20
2019-03-29T15:43:36.263Z,1.10
2019-03-29T15:47:41.554Z,1.27
2019-03-29T15:51:44.893Z,1.10
2019-03-29T15:55:48.267Z,1.50
2019-03-29T15:59:52.656Z,1.23
2019-03-29T16:03:57.696Z,1.20
2019-03-29T16:08:02.570Z,1.40
2019-03-29T16:12:06.689Z,1.10
2019-03-29T16:16:11.006Z,0.90
2019-03-29T16:20:14.527Z,1.30
2019-03-29T16:24:18.275Z,1.20
2019-03-29T16:28:21.585Z,1.20
2019-03-29T16:32:25.529Z,2.47
2019-03-29T16:36:29.045Z,1.30
2019-03-29T16:40:32.569Z,1.70
2019-03-29T16:44:36.327Z,1.50
2019-03-29T16:48:39.775Z,1.30
2019-03-29T16:52:45.556Z,1.33
2019-03-29T16:56:49.137Z,1.30
2019-03-29T17:00:53.863Z,1.37
2019-03-29T17:04:57.398Z,1.67
2019-03-29T17:09:00.966Z,1.77
2019-03-29T17:13:05.881Z,1.40
2019-03-29T17:17:09.288Z,2.10
2019-03-29T17:21:13.728Z,1.50
2019-03-29T17:25:17.260Z,1.37
2019-03-29T17:29:20.741Z,1.20
2019-03-29T17:33:24.078Z,1.70
2019-03-29T17:37:27.456Z,1.83
2019-03-29T17:41:31.824Z,1.70
2019-03-29T17:45:35.166Z,2.13
2019-03-29T17:49:38.545Z,2.00
2019-03-29T17:53:41.903Z,1.70
2019-03-29T17:57:45.438Z,3.40
2019-03-29T18:01:49.598Z,1.77
2019-03-29T18:05:53.308Z,2.03
2019-03-29T18:09:57.503Z,2.30
2019-03-29T18:14:01.418Z,2.90
2019-03-29T18:18:05.172Z,2.60
2019-03-29T18:22:08.802Z,3.87
2019-03-29T18:26:12.446Z,2.27
2019-03-29T18:30:16.466Z,3.03
2019-03-29T18:34:19.889Z,2.13
2019-03-29T18:38:23.263Z,3.07
2019-03-29T18:42:26.894Z,2.43
2019-03-29T18:46:43.657Z,2.10
2019-03-29T18:50:35.370Z,1.70
2019-03-29T18:54:38.669Z,2.40
2019-03-29T18:58:42.029Z,2.47
2019-03-29T19:02:45.684Z,2.30
2019-03-29T19:06:49.057Z,2.60
2019-03-29T19:10:52.376Z,2.67
2019-03-29T19:14:55.765Z,2.73
2019-03-29T19:19:09.459Z,2.43
2019-03-29T19:23:04.257Z,2.23
2019-03-29T19:27:07.544Z,2.60
2019-03-29T19:31:11.074Z,2.77
2019-03-29T19:35:14.512Z,2.40
2019-03-29T19:39:17.873Z,2.20
2019-03-29T19:43:21.190Z,2.90
2019-03-29T19:47:24.699Z,2.63
2019-03-29T19:51:27.978Z,3.17
2019-03-29T19:55:31.395Z,4.17
2019-03-29T19:59:34.881Z,3.53
2019-03-29T20:03:39.053Z,3.93
2019-03-29T20:07:42.420Z,3.80
2019-03-29T20:11:45.868Z,3.17
2019-03-29T20:15:49.110Z,3.10
2019-03-29T20:19:52.434Z,2.77
2019-03-29T20:23:55.696Z,3.40
2019-03-29T20:27:59.124Z,3.20
2019-03-29T20:32:03.486Z,2.93
2019-03-29T20:36:07.051Z,2.63
2019-03-29T20:40:10.503Z,3.20
2019-03-29T20:44:14.222Z,3.03
2019-03-29T20:48:17.523Z,2.70
2019-03-29T20:52:20.886Z,2.70
2019-03-29T20:56:24.191Z,3.60
2019-03-29T21:00:27.536Z,3.30
2019-03-29T21:04:31.058Z,3.83
2019-03-29T21:08:34.449Z,3.37
2019-03-29T21:12:37.902Z,4.00
2019-03-29T21:16:41.244Z,3.60
2019-03-29T21:20:44.590Z,3.40
2019-03-29T21:24:48.158Z,3.30
2019-03-29T21:28:52.878Z,4.03
2019-03-29T21:32:57.231Z,4.23
2019-03-29T21:37:00.670Z,3.27
2019-03-29T21:41:04.276Z,3.80
2019-03-29T21:45:09.117Z,4.17
2019-03-29T21:49:12.510Z,3.00
2019-03-29T21:53:15.815Z,3.43
2019-03-29T21:57:19.140Z,3.77
2019-03-29T22:01:23.449Z,3.73
2019-03-29T22:05:26.841Z,3.87
2019-03-29T22:09:36.823Z,3.50
2019-03-29T22:13:35.161Z,4.03
2019-03-29T22:17:38.486Z,3.73
2019-03-29T22:21:41.846Z,3.50
2019-03-29T22:25:45.122Z,4.07
2019-03-29T22:29:48.482Z,3.40
2019-03-29T22:33:51.973Z,3.23
2019-03-29T22:37:55.585Z,3.87
2019-03-29T22:41:59.103Z,4.10
2019-03-29T22:46:02.691Z,4.00
2019-03-29T22:50:07.486Z,3.30
2019-03-29T22:54:10.966Z,4.00
2019-03-29T22:58:14.227Z,3.57
2019-03-29T23:02:18.284Z,3.80
2019-03-29T23:06:23.262Z,4.03
2019-03-29T23:10:26.932Z,4.20
2019-03-29T23:14:30.447Z,4.37
2019-03-29T23:18:34.046Z,4.07
2019-03-29T23:22:37.307Z,4.23
2019-03-29T23:26:40.736Z,3.97
2019-03-29T23:30:45.114Z,3.80
2019-03-29T23:34:48.510Z,4.30
2019-03-29T23:38:51.777Z,5.27
2019-03-29T23:42:55.153Z,5.17
2019-03-29T23:46:58.419Z,4.83
2019-03-29T23:51:01.762Z,4.33
2019-03-29T23:55:07.055Z,4.67
2019-03-29T23:59:10.570Z,4.17
